sensor_id;sensor_type;location;lat;lon;timestamp;pressure;altitude;pressure_sealevel;temperature;humidity
72428;BME280;60419;48.880;18.036;2023-01-25T00:01:31;100665.53;;;1.49;73.45
72428;BME280;60419;48.880;18.036;2023-01-25T00:04:18;100651.38;;;1.69;72.67
72428;BME280;60419;48.880;18.036;2023-01-25T00:07:03;100653.56;;;1.98;72.21
72428;BME280;60419;48.880;18.036;2023-01-25T00:09:48;100653.53;;;2.05;71.70
72428;BME280;60419;48.880;18.036;2023-01-25T00:12:34;100656.41;;;2.03;71.09
72428;BME280;60419;48.880;18.036;2023-01-25T00:15:19;100654.66;;;1.44;73.69
72428;BME280;60419;48.880;18.036;2023-01-25T00:18:04;100666.13;;;1.18;75.16
72428;BME280;60419;48.880;18.036;2023-01-25T00:20:49;100661.84;;;1.04;75.69
72428;BME280;60419;48.880;18.036;2023-01-25T00:23:35;100659.41;;;0.41;77.87
72428;BME280;60419;48.880;18.036;2023-01-25T00:26:20;100671.63;;;1.03;76.02
72428;BME280;60419;48.880;18.036;2023-01-25T00:29:06;100667.56;;;1.34;74.52
72428;BME280;60419;48.880;18.036;2023-01-25T00:32:27;100664.50;;;1.44;74.29
72428;BME280;60419;48.880;18.036;2023-01-25T00:35:12;100654.25;;;1.34;73.54
72428;BME280;60419;48.880;18.036;2023-01-25T00:38:01;100668.38;;;1.54;73.59
72428;BME280;60419;48.880;18.036;2023-01-25T00:40:48;100660.38;;;1.68;72.25
72428;BME280;60419;48.880;18.036;2023-01-25T00:43:33;100662.97;;;2.01;70.14
72428;BME280;60419;48.880;18.036;2023-01-25T00:46:18;100663.22;;;1.86;70.12
72428;BME280;60419;48.880;18.036;2023-01-25T00:49:04;100660.59;;;1.53;70.68
72428;BME280;60419;48.880;18.036;2023-01-25T00:51:50;100655.06;;;1.54;70.77
72428;BME280;60419;48.880;18.036;2023-01-25T00:54:36;100666.34;;;1.50;72.61
72428;BME280;60419;48.880;18.036;2023-01-25T00:57:22;100663.50;;;1.25;72.39
72428;BME280;60419;48.880;18.036;2023-01-25T01:00:07;100658.78;;;1.40;72.78
72428;BME280;60419;48.880;18.036;2023-01-25T01:02:54;100661.03;;;1.16;74.10
72428;BME280;60419;48.880;18.036;2023-01-25T01:05:39;100665.13;;;1.32;73.64
72428;BME280;60419;48.880;18.036;2023-01-25T01:08:24;100666.94;;;1.65;72.33
72428;BME280;60419;48.880;18.036;2023-01-25T01:11:11;100662.44;;;1.52;71.86
72428;BME280;60419;48.880;18.036;2023-01-25T01:13:58;100663.19;;;0.12;77.25
72428;BME280;60419;48.880;18.036;2023-01-25T01:16:43;100665.84;;;0.66;75.64
72428;BME280;60419;48.880;18.036;2023-01-25T01:19:29;100666.16;;;0.43;76.92
72428;BME280;60419;48.880;18.036;2023-01-25T01:22:14;100663.88;;;0.27;77.66
72428;BME280;60419;48.880;18.036;2023-01-25T01:25:00;100664.13;;;0.45;77.50
72428;BME280;60419;48.880;18.036;2023-01-25T01:27:45;100670.75;;;0.63;76.94
72428;BME280;60419;48.880;18.036;2023-01-25T01:30:31;100662.41;;;0.72;76.37
72428;BME280;60419;48.880;18.036;2023-01-25T01:33:16;100660.81;;;1.05;74.53
72428;BME280;60419;48.880;18.036;2023-01-25T01:38:53;100658.53;;;0.27;77.96
72428;BME280;60419;48.880;18.036;2023-01-25T01:41:38;100659.47;;;0.54;76.97
72428;BME280;60419;48.880;18.036;2023-01-25T01:44:49;100660.34;;;0.81;75.05
72428;BME280;60419;48.880;18.036;2023-01-25T01:47:40;100659.19;;;1.04;74.46
72428;BME280;60419;48.880;18.036;2023-01-25T01:50:29;100660.47;;;0.46;76.56
72428;BME280;60419;48.880;18.036;2023-01-25T01:53:15;100649.06;;;0.59;76.44
72428;BME280;60419;48.880;18.036;2023-01-25T01:56:05;100653.34;;;0.05;77.90
72428;BME280;60419;48.880;18.036;2023-01-25T01:58:53;100640.97;;;0.26;76.98
72428;BME280;60419;48.880;18.036;2023-01-25T02:01:40;100645.19;;;0.14;78.33
72428;BME280;60419;48.880;18.036;2023-01-25T02:04:26;100652.28;;;0.48;77.57
72428;BME280;60419;48.880;18.036;2023-01-25T02:07:16;100642.81;;;0.25;78.04
72428;BME280;60419;48.880;18.036;2023-01-25T02:10:05;100646.88;;;0.21;78.23
72428;BME280;60419;48.880;18.036;2023-01-25T02:12:53;100652.81;;;0.23;77.98
72428;BME280;60419;48.880;18.036;2023-01-25T02:15:46;100645.56;;;0.04;79.02
72428;BME280;60419;48.880;18.036;2023-01-25T02:18:33;100648.38;;;0.37;77.58
72428;BME280;60419;48.880;18.036;2023-01-25T02:21:18;100640.78;;;0.34;77.14
72428;BME280;60419;48.880;18.036;2023-01-25T02:24:11;100637.59;;;0.72;75.23
72428;BME280;60419;48.880;18.036;2023-01-25T02:26:58;100630.38;;;0.39;75.93
72428;BME280;60419;48.880;18.036;2023-01-25T02:29:44;100632.91;;;0.67;75.28
72428;BME280;60419;48.880;18.036;2023-01-25T02:32:31;100627.00;;;0.92;74.41
72428;BME280;60419;48.880;18.036;2023-01-25T02:35:18;100623.75;;;1.23;73.27
72428;BME280;60419;48.880;18.036;2023-01-25T02:38:04;100621.69;;;1.38;72.89
72428;BME280;60419;48.880;18.036;2023-01-25T02:43:38;100619.19;;;1.70;70.84
72428;BME280;60419;48.880;18.036;2023-01-25T02:46:29;100581.50;;;1.60;69.97
72428;BME280;60419;48.880;18.036;2023-01-25T02:49:16;100606.00;;;1.89;69.73
72428;BME280;60419;48.880;18.036;2023-01-25T02:52:03;100610.19;;;1.65;69.78
72428;BME280;60419;48.880;18.036;2023-01-25T02:54:48;100601.13;;;1.79;70.26
72428;BME280;60419;48.880;18.036;2023-01-25T02:57:33;100606.00;;;1.89;69.51
72428;BME280;60419;48.880;18.036;2023-01-25T03:00:19;100604.84;;;1.65;69.89
72428;BME280;60419;48.880;18.036;2023-01-25T03:03:04;100603.47;;;1.49;69.69
72428;BME280;60419;48.880;18.036;2023-01-25T03:05:50;100588.94;;;1.05;70.81
72428;BME280;60419;48.880;18.036;2023-01-25T03:08:35;100603.06;;;1.25;70.84
72428;BME280;60419;48.880;18.036;2023-01-25T03:11:20;100571.56;;;1.09;71.55
72428;BME280;60419;48.880;18.036;2023-01-25T03:14:06;100593.66;;;1.23;71.10
72428;BME280;60419;48.880;18.036;2023-01-25T03:16:51;100591.63;;;1.25;71.44
72428;BME280;60419;48.880;18.036;2023-01-25T03:19:36;100594.03;;;1.46;70.58
72428;BME280;60419;48.880;18.036;2023-01-25T03:22:22;100587.91;;;1.06;71.94
72428;BME280;60419;48.880;18.036;2023-01-25T03:25:07;100587.31;;;1.17;71.63
72428;BME280;60419;48.880;18.036;2023-01-25T03:27:53;100580.09;;;1.51;70.74
72428;BME280;60419;48.880;18.036;2023-01-25T03:30:38;100572.91;;;1.58;70.81
72428;BME280;60419;48.880;18.036;2023-01-25T03:33:24;100580.56;;;1.14;72.40
72428;BME280;60419;48.880;18.036;2023-01-25T03:36:09;100577.03;;;0.61;73.92
72428;BME280;60419;48.880;18.036;2023-01-25T03:38:55;100585.56;;;0.23;75.29
72428;BME280;60419;48.880;18.036;2023-01-25T03:41:40;100580.13;;;0.71;72.94
72428;BME280;60419;48.880;18.036;2023-01-25T03:44:25;100585.88;;;1.01;72.29
72428;BME280;60419;48.880;18.036;2023-01-25T03:47:11;100577.69;;;1.09;71.41
72428;BME280;60419;48.880;18.036;2023-01-25T03:49:56;100571.34;;;1.17;71.09
72428;BME280;60419;48.880;18.036;2023-01-25T03:52:49;100579.50;;;1.35;69.95
72428;BME280;60419;48.880;18.036;2023-01-25T03:55:42;100566.19;;;1.29;69.67
72428;BME280;60419;48.880;18.036;2023-01-25T03:58:28;100575.19;;;1.34;70.46
72428;BME280;60419;48.880;18.036;2023-01-25T04:01:13;100573.78;;;1.25;70.34
72428;BME280;60419;48.880;18.036;2023-01-25T04:03:59;100570.72;;;1.35;69.54
72428;BME280;60419;48.880;18.036;2023-01-25T04:06:44;100569.47;;;1.37;69.14
72428;BME280;60419;48.880;18.036;2023-01-25T04:09:30;100567.03;;;1.23;70.06
72428;BME280;60419;48.880;18.036;2023-01-25T04:12:15;100566.81;;;1.11;70.06
72428;BME280;60419;48.880;18.036;2023-01-25T04:15:00;100550.03;;;1.10;69.67
72428;BME280;60419;48.880;18.036;2023-01-25T04:17:45;100566.41;;;1.27;69.29
72428;BME280;60419;48.880;18.036;2023-01-25T04:20:31;100575.22;;;1.08;70.38
72428;BME280;60419;48.880;18.036;2023-01-25T04:23:16;100565.63;;;0.80;70.22
72428;BME280;60419;48.880;18.036;2023-01-25T04:26:04;100568.50;;;0.85;70.86
72428;BME280;60419;48.880;18.036;2023-01-25T04:28:50;100561.53;;;0.64;72.08
72428;BME280;60419;48.880;18.036;2023-01-25T04:31:35;100570.13;;;0.93;70.52
72428;BME280;60419;48.880;18.036;2023-01-25T04:34:20;100569.69;;;0.76;70.59
72428;BME280;60419;48.880;18.036;2023-01-25T04:37:06;100559.25;;;0.74;70.99
72428;BME280;60419;48.880;18.036;2023-01-25T04:39:51;100563.34;;;0.84;70.64
72428;BME280;60419;48.880;18.036;2023-01-25T04:42:36;100565.50;;;0.20;71.58
72428;BME280;60419;48.880;18.036;2023-01-25T04:45:23;100555.78;;;0.61;72.59
72428;BME280;60419;48.880;18.036;2023-01-25T04:48:11;100558.72;;;0.11;72.00
72428;BME280;60419;48.880;18.036;2023-01-25T04:50:56;100556.94;;;0.31;72.84
72428;BME280;60419;48.880;18.036;2023-01-25T04:53:42;100555.16;;;0.72;71.14
72428;BME280;60419;48.880;18.036;2023-01-25T04:56:27;100554.75;;;0.82;70.29
72428;BME280;60419;48.880;18.036;2023-01-25T04:59:13;100563.97;;;0.86;69.96
72428;BME280;60419;48.880;18.036;2023-01-25T05:01:58;100566.63;;;0.79;70.54
72428;BME280;60419;48.880;18.036;2023-01-25T05:04:43;100534.66;;;0.26;70.57
72428;BME280;60419;48.880;18.036;2023-01-25T05:07:29;100569.69;;;0.69;70.09
72428;BME280;60419;48.880;18.036;2023-01-25T05:10:14;100567.84;;;0.77;70.54
72428;BME280;60419;48.880;18.036;2023-01-25T05:12:59;100569.69;;;0.63;71.58
72428;BME280;60419;48.880;18.036;2023-01-25T05:15:46;100574.03;;;0.09;73.99
72428;BME280;60419;48.880;18.036;2023-01-25T05:18:31;100563.41;;;0.02;73.14
72428;BME280;60419;48.880;18.036;2023-01-25T05:21:17;100566.72;;;-0.37;74.24
72428;BME280;60419;48.880;18.036;2023-01-25T05:24:21;100567.47;;;-0.02;74.54
72428;BME280;60419;48.880;18.036;2023-01-25T05:27:08;100536.56;;;-0.09;73.90
72428;BME280;60419;48.880;18.036;2023-01-25T05:29:55;100552.03;;;0.35;73.45
72428;BME280;60419;48.880;18.036;2023-01-25T05:32:40;100561.09;;;0.54;72.48
72428;BME280;60419;48.880;18.036;2023-01-25T05:35:26;100562.75;;;0.62;72.85
72428;BME280;60419;48.880;18.036;2023-01-25T05:38:11;100561.31;;;0.72;72.01
72428;BME280;60419;48.880;18.036;2023-01-25T05:40:57;100552.94;;;0.75;72.00
72428;BME280;60419;48.880;18.036;2023-01-25T05:43:43;100560.28;;;0.87;71.79
72428;BME280;60419;48.880;18.036;2023-01-25T05:46:31;100556.59;;;0.68;71.50
72428;BME280;60419;48.880;18.036;2023-01-25T05:49:17;100524.44;;;0.43;72.10
72428;BME280;60419;48.880;18.036;2023-01-25T05:52:03;100546.16;;;1.00;71.64
72428;BME280;60419;48.880;18.036;2023-01-25T05:54:48;100567.53;;;1.78;80.61
72428;BME280;60419;48.880;18.036;2023-01-25T05:57:34;100559.28;;;1.86;73.89
72428;BME280;60419;48.880;18.036;2023-01-25T06:00:19;100555.66;;;1.67;69.98
72428;BME280;60419;48.880;18.036;2023-01-25T06:03:04;100544.50;;;1.18;70.24
72428;BME280;60419;48.880;18.036;2023-01-25T06:05:57;100557.19;;;1.43;68.93
72428;BME280;60419;48.880;18.036;2023-01-25T06:08:43;100568.28;;;1.07;70.22
72428;BME280;60419;48.880;18.036;2023-01-25T06:11:29;100565.38;;;1.28;69.44
72428;BME280;60419;48.880;18.036;2023-01-25T06:14:14;100563.97;;;1.19;69.35
72428;BME280;60419;48.880;18.036;2023-01-25T06:17:00;100562.91;;;1.27;69.88
72428;BME280;60419;48.880;18.036;2023-01-25T06:19:45;100560.91;;;1.22;69.13
72428;BME280;60419;48.880;18.036;2023-01-25T06:22:30;100565.38;;;1.35;68.44
72428;BME280;60419;48.880;18.036;2023-01-25T06:25:16;100538.75;;;1.22;68.73
72428;BME280;60419;48.880;18.036;2023-01-25T06:28:01;100560.63;;;1.50;68.48
72428;BME280;60419;48.880;18.036;2023-01-25T06:30:47;100558.75;;;1.57;68.31
72428;BME280;60419;48.880;18.036;2023-01-25T06:33:32;100551.66;;;1.31;67.94
72428;BME280;60419;48.880;18.036;2023-01-25T06:36:19;100560.91;;;0.75;69.18
72428;BME280;60419;48.880;18.036;2023-01-25T06:39:04;100562.34;;;1.11;69.65
72428;BME280;60419;48.880;18.036;2023-01-25T06:41:49;100555.56;;;0.95;69.43
72428;BME280;60419;48.880;18.036;2023-01-25T06:44:35;100550.44;;;1.01;69.50
72428;BME280;60419;48.880;18.036;2023-01-25T06:47:20;100554.31;;;1.31;68.55
72428;BME280;60419;48.880;18.036;2023-01-25T06:50:06;100557.19;;;1.36;68.12
72428;BME280;60419;48.880;18.036;2023-01-25T06:52:52;100560.72;;;1.04;68.24
72428;BME280;60419;48.880;18.036;2023-01-25T06:55:38;100549.84;;;0.65;69.57
72428;BME280;60419;48.880;18.036;2023-01-25T06:58:24;100549.84;;;0.72;69.58
72428;BME280;60419;48.880;18.036;2023-01-25T07:01:19;100549.25;;;0.96;69.60
72428;BME280;60419;48.880;18.036;2023-01-25T07:04:05;100554.34;;;1.05;68.80
72428;BME280;60419;48.880;18.036;2023-01-25T07:06:50;100544.72;;;0.97;68.47
72428;BME280;60419;48.880;18.036;2023-01-25T07:09:35;100545.75;;;1.03;68.59
72428;BME280;60419;48.880;18.036;2023-01-25T07:12:21;100543.28;;;1.08;68.42
72428;BME280;60419;48.880;18.036;2023-01-25T07:15:07;100550.44;;;1.01;68.99
72428;BME280;60419;48.880;18.036;2023-01-25T07:17:52;100552.91;;;1.15;68.66
72428;BME280;60419;48.880;18.036;2023-01-25T07:20:37;100553.94;;;0.74;69.36
72428;BME280;60419;48.880;18.036;2023-01-25T07:23:23;100544.53;;;0.92;69.85
72428;BME280;60419;48.880;18.036;2023-01-25T07:26:20;100546.16;;;0.86;70.33
72428;BME280;60419;48.880;18.036;2023-01-25T07:29:05;100558.72;;;1.77;80.62
72428;BME280;60419;48.880;18.036;2023-01-25T07:31:51;100548.00;;;1.84;69.47
72428;BME280;60419;48.880;18.036;2023-01-25T07:34:36;100543.78;;;1.63;68.71
72428;BME280;60419;48.880;18.036;2023-01-25T07:37:21;100535.59;;;1.58;68.46
72428;BME280;60419;48.880;18.036;2023-01-25T07:40:07;100543.47;;;1.91;67.88
72428;BME280;60419;48.880;18.036;2023-01-25T07:42:53;100551.69;;;1.25;69.02
72428;BME280;60419;48.880;18.036;2023-01-25T07:45:38;100538.06;;;1.59;67.42
72428;BME280;60419;48.880;18.036;2023-01-25T07:48:24;100553.56;;;1.82;66.87
72428;BME280;60419;48.880;18.036;2023-01-25T07:51:09;100550.91;;;1.82;67.18
72428;BME280;60419;48.880;18.036;2023-01-25T07:54:09;100558.53;;;1.72;67.10
72428;BME280;60419;48.880;18.036;2023-01-25T07:56:55;100552.09;;;1.87;66.73
72428;BME280;60419;48.880;18.036;2023-01-25T07:59:41;100554.09;;;2.04;67.07
72428;BME280;60419;48.880;18.036;2023-01-25T08:02:27;100550.47;;;1.85;67.94
72428;BME280;60419;48.880;18.036;2023-01-25T08:05:12;100554.88;;;1.60;68.64
72428;BME280;60419;48.880;18.036;2023-01-25T08:07:57;100553.00;;;1.67;69.14
72428;BME280;60419;48.880;18.036;2023-01-25T08:10:43;100563.06;;;2.10;68.05
72428;BME280;60419;48.880;18.036;2023-01-25T08:13:28;100557.91;;;2.22;67.72
72428;BME280;60419;48.880;18.036;2023-01-25T08:16:22;100552.09;;;1.87;68.14
72428;BME280;60419;48.880;18.036;2023-01-25T08:19:08;100532.19;;;1.96;68.61
72428;BME280;60419;48.880;18.036;2023-01-25T08:21:54;100557.03;;;2.35;67.80
72428;BME280;60419;48.880;18.036;2023-01-25T08:24:40;100548.09;;;2.16;68.12
72428;BME280;60419;48.880;18.036;2023-01-25T08:27:27;100546.25;;;2.48;67.81
72428;BME280;60419;48.880;18.036;2023-01-25T08:30:12;100544.94;;;2.25;68.66
72428;BME280;60419;48.880;18.036;2023-01-25T08:32:58;100535.00;;;2.07;68.99
72428;BME280;60419;48.880;18.036;2023-01-25T08:35:53;100534.63;;;2.04;69.54
72428;BME280;60419;48.880;18.036;2023-01-25T08:38:39;100537.38;;;2.29;68.47
72428;BME280;60419;48.880;18.036;2023-01-25T08:41:25;100541.97;;;2.47;68.22
72428;BME280;60419;48.880;18.036;2023-01-25T08:44:11;100538.97;;;2.30;68.18
72428;BME280;60419;48.880;18.036;2023-01-25T08:46:56;100508.59;;;2.31;68.52
72428;BME280;60419;48.880;18.036;2023-01-25T08:49:42;100540.72;;;2.75;67.87
72428;BME280;60419;48.880;18.036;2023-01-25T08:52:28;100512.16;;;2.82;67.37
72428;BME280;60419;48.880;18.036;2023-01-25T08:55:13;100526.47;;;3.12;66.89
72428;BME280;60419;48.880;18.036;2023-01-25T08:57:58;100533.16;;;3.40;65.29
72428;BME280;60419;48.880;18.036;2023-01-25T09:00:44;100529.59;;;3.28;66.02
72428;BME280;60419;48.880;18.036;2023-01-25T09:03:30;100533.28;;;3.27;65.86
72428;BME280;60419;48.880;18.036;2023-01-25T09:06:17;100530.16;;;3.11;67.13
72428;BME280;60419;48.880;18.036;2023-01-25T09:09:03;100542.19;;;2.39;68.95
72428;BME280;60419;48.880;18.036;2023-01-25T09:11:49;100527.88;;;2.65;67.60
72428;BME280;60419;48.880;18.036;2023-01-25T09:14:34;100540.75;;;3.00;67.30
72428;BME280;60419;48.880;18.036;2023-01-25T09:17:21;100528.31;;;2.62;68.17
72428;BME280;60419;48.880;18.036;2023-01-25T09:20:07;100535.56;;;1.78;70.26
72428;BME280;60419;48.880;18.036;2023-01-25T09:22:54;100521.41;;;0.79;73.76
72428;BME280;60419;48.880;18.036;2023-01-25T09:25:40;100528.50;;;1.45;73.03
72428;BME280;60419;48.880;18.036;2023-01-25T09:28:27;100527.25;;;1.99;70.78
72428;BME280;60419;48.880;18.036;2023-01-25T09:31:14;100504.19;;;1.80;70.58
72428;BME280;60419;48.880;18.036;2023-01-25T09:34:00;100531.78;;;2.37;69.68
72428;BME280;60419;48.880;18.036;2023-01-25T09:36:45;100534.03;;;2.34;69.67
72428;BME280;60419;48.880;18.036;2023-01-25T09:39:30;100525.09;;;1.76;71.67
72428;BME280;60419;48.880;18.036;2023-01-25T09:45:38;100496.41;;;2.48;69.06
72428;BME280;60419;48.880;18.036;2023-01-25T09:48:40;100493.66;;;2.30;69.79
72428;BME280;60419;48.880;18.036;2023-01-25T09:51:45;100497.94;;;1.54;72.52
72428;BME280;60419;48.880;18.036;2023-01-25T09:54:44;100507.03;;;1.13;73.76
72428;BME280;60419;48.880;18.036;2023-01-25T09:57:35;100499.78;;;1.47;73.29
72428;BME280;60419;48.880;18.036;2023-01-25T10:00:31;100494.78;;;1.19;74.29
72428;BME280;60419;48.880;18.036;2023-01-25T10:06:15;100488.75;;;1.37;74.31
72428;BME280;60419;48.880;18.036;2023-01-25T10:12:24;100484.78;;;0.81;76.72
72428;BME280;60419;48.880;18.036;2023-01-25T10:15:20;100474.34;;;0.86;76.00
72428;BME280;60419;48.880;18.036;2023-01-25T10:18:26;100472.31;;;0.62;77.15
72428;BME280;60419;48.880;18.036;2023-01-25T10:21:21;100456.56;;;0.80;76.46
72428;BME280;60419;48.880;18.036;2023-01-25T10:30:26;100448.88;;;1.24;74.99
72428;BME280;60419;48.880;18.036;2023-01-25T10:33:17;100446.28;;;1.04;75.50
72428;BME280;60419;48.880;18.036;2023-01-25T10:36:04;100443.22;;;0.93;75.88
72428;BME280;60419;48.880;18.036;2023-01-25T10:38:49;100439.53;;;0.94;76.20
72428;BME280;60419;48.880;18.036;2023-01-25T10:41:45;100424.94;;;1.69;74.31
72428;BME280;60419;48.880;18.036;2023-01-25T10:44:33;100427.13;;;1.33;73.84
72428;BME280;60419;48.880;18.036;2023-01-25T10:47:28;100419.53;;;1.37;74.39
72428;BME280;60419;48.880;18.036;2023-01-25T10:53:34;100417.97;;;1.99;72.05
72428;BME280;60419;48.880;18.036;2023-01-25T10:56:23;100403.63;;;1.69;72.87
72428;BME280;60419;48.880;18.036;2023-01-25T10:59:24;100391.91;;;2.08;71.37
72428;BME280;60419;48.880;18.036;2023-01-25T11:02:43;100380.63;;;2.06;71.65
72428;BME280;60419;48.880;18.036;2023-01-25T11:08:25;100371.97;;;2.98;69.67
72428;BME280;60419;48.880;18.036;2023-01-25T11:11:35;100338.94;;;2.37;70.59
72428;BME280;60419;48.880;18.036;2023-01-25T11:14:23;100363.63;;;2.50;70.92
72428;BME280;60419;48.880;18.036;2023-01-25T11:17:26;100361.13;;;2.74;69.50
72428;BME280;60419;48.880;18.036;2023-01-25T11:20:18;100359.41;;;2.61;69.63
72428;BME280;60419;48.880;18.036;2023-01-25T11:23:21;100362.38;;;2.53;69.96
72428;BME280;60419;48.880;18.036;2023-01-25T11:26:16;100355.06;;;1.67;72.50
72428;BME280;60419;48.880;18.036;2023-01-25T11:31:57;100349.84;;;2.54;70.59
72428;BME280;60419;48.880;18.036;2023-01-25T11:34:43;100339.31;;;2.40;70.49
72428;BME280;60419;48.880;18.036;2023-01-25T11:40:39;100343.78;;;2.65;70.08
72428;BME280;60419;48.880;18.036;2023-01-25T11:56:56;100309.03;;;2.90;70.09
72428;BME280;60419;48.880;18.036;2023-01-25T12:06:15;100291.00;;;2.30;71.41
72428;BME280;60419;48.880;18.036;2023-01-25T12:12:37;100271.69;;;2.71;70.10
72428;BME280;60419;48.880;18.036;2023-01-25T12:15:30;100276.94;;;2.41;71.21
72428;BME280;60419;48.880;18.036;2023-01-25T12:24:14;100254.78;;;2.41;71.40
72428;BME280;60419;48.880;18.036;2023-01-25T12:30:03;100245.66;;;2.30;71.66
72428;BME280;60419;48.880;18.036;2023-01-25T12:33:02;100218.31;;;1.98;72.17
72428;BME280;60419;48.880;18.036;2023-01-25T12:36:16;100245.63;;;2.37;71.70
72428;BME280;60419;48.880;18.036;2023-01-25T12:39:13;100249.00;;;2.44;71.31
72428;BME280;60419;48.880;18.036;2023-01-25T12:45:10;100241.81;;;2.63;70.59
72428;BME280;60419;48.880;18.036;2023-01-25T12:48:13;100243.88;;;2.79;70.29
72428;BME280;60419;48.880;18.036;2023-01-25T12:51:01;100240.22;;;2.92;69.95
72428;BME280;60419;48.880;18.036;2023-01-25T12:53:47;100226.41;;;3.25;68.91
72428;BME280;60419;48.880;18.036;2023-01-25T12:57:06;100235.88;;;2.79;69.91
72428;BME280;60419;48.880;18.036;2023-01-25T13:00:16;100237.38;;;2.57;70.72
72428;BME280;60419;48.880;18.036;2023-01-25T13:05:57;100226.63;;;2.93;70.01
72428;BME280;60419;48.880;18.036;2023-01-25T13:08:54;100226.28;;;2.90;69.79
72428;BME280;60419;48.880;18.036;2023-01-25T13:11:44;100217.78;;;2.81;70.09
72428;BME280;60419;48.880;18.036;2023-01-25T13:14:40;100219.38;;;2.34;71.49
72428;BME280;60419;48.880;18.036;2023-01-25T13:17:32;100214.03;;;2.34;71.73
72428;BME280;60419;48.880;18.036;2023-01-25T13:23:34;100193.22;;;1.87;73.14
72428;BME280;60419;48.880;18.036;2023-01-25T13:41:22;100199.66;;;1.79;74.46
72428;BME280;60419;48.880;18.036;2023-01-25T13:44:22;100194.72;;;2.20;72.94
72428;BME280;60419;48.880;18.036;2023-01-25T13:47:23;100193.00;;;2.25;72.41
72428;BME280;60419;48.880;18.036;2023-01-25T13:50:25;100187.53;;;2.20;72.25
72428;BME280;60419;48.880;18.036;2023-01-25T13:55:59;100197.59;;;2.00;73.10
72428;BME280;60419;48.880;18.036;2023-01-25T13:58:45;100196.56;;;2.19;72.73
72428;BME280;60419;48.880;18.036;2023-01-25T14:01:33;100161.91;;;1.82;72.77
72428;BME280;60419;48.880;18.036;2023-01-25T14:04:19;100191.44;;;2.55;71.68
72428;BME280;60419;48.880;18.036;2023-01-25T14:07:05;100193.16;;;2.12;72.08
72428;BME280;60419;48.880;18.036;2023-01-25T14:09:55;100186.25;;;1.43;74.01
72428;BME280;60419;48.880;18.036;2023-01-25T14:12:42;100175.88;;;1.53;74.57
72428;BME280;60419;48.880;18.036;2023-01-25T14:15:30;100183.09;;;2.14;72.83
72428;BME280;60419;48.880;18.036;2023-01-25T14:18:17;100176.94;;;1.77;73.36
72428;BME280;60419;48.880;18.036;2023-01-25T14:21:10;100183.75;;;2.28;72.31
72428;BME280;60419;48.880;18.036;2023-01-25T14:24:08;100166.94;;;1.91;73.17
72428;BME280;60419;48.880;18.036;2023-01-25T14:26:54;100161.97;;;1.94;73.19
72428;BME280;60419;48.880;18.036;2023-01-25T14:29:40;100124.88;;;1.31;73.91
72428;BME280;60419;48.880;18.036;2023-01-25T14:32:26;100161.00;;;1.20;76.07
72428;BME280;60419;48.880;18.036;2023-01-25T14:35:42;100165.41;;;1.33;75.53
72428;BME280;60419;48.880;18.036;2023-01-25T14:38:34;100155.66;;;1.70;74.58
72428;BME280;60419;48.880;18.036;2023-01-25T14:41:27;100158.00;;;1.60;74.74
72428;BME280;60419;48.880;18.036;2023-01-25T14:44:13;100153.59;;;2.27;72.83
72428;BME280;60419;48.880;18.036;2023-01-25T14:47:28;100156.88;;;1.93;74.18
72428;BME280;60419;48.880;18.036;2023-01-25T14:50:47;100158.81;;;2.71;71.62
72428;BME280;60419;48.880;18.036;2023-01-25T14:53:32;100156.47;;;3.05;69.74
72428;BME280;60419;48.880;18.036;2023-01-25T14:56:31;100151.41;;;2.73;70.21
72428;BME280;60419;48.880;18.036;2023-01-25T14:59:34;100150.56;;;1.69;74.39
72428;BME280;60419;48.880;18.036;2023-01-25T15:02:29;100144.69;;;2.34;71.83
72428;BME280;60419;48.880;18.036;2023-01-25T15:05:30;100144.56;;;2.47;71.50
72428;BME280;60419;48.880;18.036;2023-01-25T15:08:36;100143.66;;;2.83;70.15
72428;BME280;60419;48.880;18.036;2023-01-25T15:11:27;100133.75;;;2.42;70.61
72428;BME280;60419;48.880;18.036;2023-01-25T15:14:29;100139.19;;;2.65;70.86
72428;BME280;60419;48.880;18.036;2023-01-25T15:17:37;100151.69;;;1.79;73.50
72428;BME280;60419;48.880;18.036;2023-01-25T15:20:29;100143.69;;;1.61;74.33
72428;BME280;60419;48.880;18.036;2023-01-25T15:23:23;100142.75;;;1.49;74.77
72428;BME280;60419;48.880;18.036;2023-01-25T15:29:12;100115.69;;;1.70;74.40
72428;BME280;60419;48.880;18.036;2023-01-25T15:31:58;100138.38;;;1.79;74.04
72428;BME280;60419;48.880;18.036;2023-01-25T15:34:43;100135.78;;;2.10;72.81
72428;BME280;60419;48.880;18.036;2023-01-25T15:37:28;100137.97;;;2.49;71.88
72428;BME280;60419;48.880;18.036;2023-01-25T15:40:14;100130.38;;;2.46;71.05
72428;BME280;60419;48.880;18.036;2023-01-25T15:42:59;100130.06;;;2.24;71.53
72428;BME280;60419;48.880;18.036;2023-01-25T15:45:48;100126.59;;;1.69;73.46
72428;BME280;60419;48.880;18.036;2023-01-25T15:48:41;100112.81;;;1.53;74.19
72428;BME280;60419;48.880;18.036;2023-01-25T15:51:27;100118.53;;;1.75;73.45
72428;BME280;60419;48.880;18.036;2023-01-25T15:54:12;100120.69;;;2.03;72.87
72428;BME280;60419;48.880;18.036;2023-01-25T15:56:58;100122.59;;;1.34;75.12
72428;BME280;60419;48.880;18.036;2023-01-25T15:59:44;100122.94;;;1.81;73.99
72428;BME280;60419;48.880;18.036;2023-01-25T16:02:29;100117.94;;;1.92;72.81
72428;BME280;60419;48.880;18.036;2023-01-25T16:05:15;100113.56;;;2.16;72.01
72428;BME280;60419;48.880;18.036;2023-01-25T16:08:00;100112.69;;;2.03;72.13
72428;BME280;60419;48.880;18.036;2023-01-25T16:10:46;100122.94;;;1.81;72.76
72428;BME280;60419;48.880;18.036;2023-01-25T16:13:31;100114.94;;;2.37;80.75
72428;BME280;60419;48.880;18.036;2023-01-25T16:16:19;100106.88;;;4.89;84.01
72428;BME280;60419;48.880;18.036;2023-01-25T16:19:12;100108.25;;;2.88;69.14